createdAt,value
2019-01-04T00:00:37.481Z,63.56
2019-01-04T00:03:07.003Z,61.89
2019-01-04T00:05:36.455Z,63.60
2019-01-04T00:08:05.968Z,63.64
2019-01-04T00:10:35.475Z,65.31
2019-01-04T00:13:05.036Z,63.24
2019-01-04T00:15:34.588Z,63.11
2019-01-04T00:18:04.054Z,62.29
2019-01-04T00:20:33.676Z,63.48
2019-01-04T00:23:03.296Z,63.02
2019-01-04T00:25:32.837Z,64.50
2019-01-04T00:28:02.378Z,64.54
2019-01-04T00:30:32.000Z,63.24
2019-01-04T00:33:01.585Z,63.32
2019-01-04T00:35:31.244Z,63.48
2019-01-04T00:38:00.759Z,63.38
2019-01-04T00:40:30.260Z,64.88
2019-01-04T00:42:59.781Z,64.83
2019-01-04T00:45:29.392Z,64.95
2019-01-04T00:47:58.961Z,64.52
2019-01-04T00:50:28.436Z,65.19
2019-01-04T00:52:57.985Z,64.08
2019-01-04T00:55:51.627Z,63.74
2019-01-04T00:58:59.136Z,66.81
2019-01-04T01:02:08.725Z,64.28
2019-01-04T01:05:25.687Z,64.85
2019-01-04T01:08:11.499Z,64.09
2019-01-04T01:11:09.526Z,66.01
2019-01-04T01:13:54.223Z,65.85
2019-01-04T01:16:58.956Z,65.04
2019-01-04T01:20:13.610Z,64.36
2019-01-04T01:23:16.778Z,64.90
2019-01-04T01:26:16.817Z,65.13
2019-01-04T01:29:21.761Z,65.01
2019-01-04T01:31:58.968Z,65.38
2019-01-04T01:34:48.112Z,62.98
2019-01-04T01:37:50.910Z,65.21
2019-01-04T01:40:51.961Z,65.60
2019-01-04T01:43:52.974Z,62.38
2019-01-04T01:46:46.249Z,63.94
2019-01-04T01:50:07.215Z,64.27
2019-01-04T01:52:46.306Z,62.61
2019-01-04T01:55:15.707Z,64.50
2019-01-04T01:57:45.104Z,63.74
2019-01-04T02:00:14.726Z,63.22
2019-01-04T02:02:44.215Z,63.58
2019-01-04T02:05:13.719Z,64.34
2019-01-04T02:07:43.235Z,64.19
2019-01-04T02:10:12.646Z,64.51
2019-01-04T02:12:42.129Z,64.62
2019-01-04T02:15:11.653Z,62.89
2019-01-04T02:17:41.154Z,65.89
2019-01-04T02:20:10.559Z,64.75
2019-01-04T02:22:39.979Z,64.44
2019-01-04T02:25:09.513Z,64.88
2019-01-04T02:27:38.959Z,66.00
2019-01-04T02:30:09.193Z,65.58
2019-01-04T02:32:38.687Z,65.87
2019-01-04T02:35:08.254Z,63.83
2019-01-04T02:37:37.671Z,65.03
2019-01-04T02:40:07.060Z,62.25
2019-01-04T02:42:36.466Z,64.63
2019-01-04T02:45:06.480Z,62.42
2019-01-04T02:47:35.952Z,63.87
2019-01-04T02:50:05.838Z,65.24
2019-01-04T02:52:35.248Z,65.59
2019-01-04T02:55:04.752Z,64.76
2019-01-04T02:57:34.252Z,65.09
2019-01-04T03:00:03.967Z,65.00
2019-01-04T03:02:33.426Z,64.98
2019-01-04T03:05:02.986Z,65.89
2019-01-04T03:07:32.571Z,67.41
2019-01-04T03:10:02.189Z,65.93
2019-01-04T03:12:32.016Z,66.74
2019-01-04T03:15:01.522Z,65.60
2019-01-04T03:17:31.037Z,66.47
2019-01-04T03:20:00.606Z,65.42
2019-01-04T03:22:30.071Z,66.17
2019-01-04T03:24:59.451Z,65.96
2019-01-04T03:27:28.884Z,66.68
2019-01-04T03:29:58.349Z,67.82
2019-01-04T03:32:28.198Z,68.05
2019-01-04T03:34:57.657Z,65.82
2019-01-04T03:37:27.145Z,66.69
2019-01-04T03:39:56.675Z,67.89
2019-01-04T03:42:26.360Z,66.81
2019-01-04T03:44:55.890Z,66.91
2019-01-04T03:47:25.313Z,67.18
2019-01-04T03:49:54.751Z,67.30
2019-01-04T03:52:24.283Z,67.86
2019-01-04T03:54:54.071Z,68.00
2019-01-04T03:57:23.581Z,67.51
2019-01-04T03:59:53.102Z,67.26
2019-01-04T04:02:22.561Z,68.21
2019-01-04T04:04:52.088Z,66.63
2019-01-04T04:07:21.618Z,66.53
2019-01-04T04:09:51.051Z,67.27
2019-01-04T04:12:20.579Z,67.84
2019-01-04T04:14:50.028Z,66.84
2019-01-04T04:17:19.465Z,68.78
2019-01-04T04:19:48.961Z,66.96
2019-01-04T04:22:18.392Z,68.83
2019-01-04T04:24:47.881Z,67.18
2019-01-04T04:27:17.374Z,66.68
2019-01-04T04:29:46.908Z,67.02
2019-01-04T04:32:16.472Z,67.80
2019-01-04T04:34:47.162Z,67.82
2019-01-04T04:37:16.552Z,66.89
2019-01-04T04:39:46.137Z,67.39
2019-01-04T04:42:15.628Z,68.00
2019-01-04T04:44:45.145Z,68.94
2019-01-04T04:47:14.574Z,70.12
2019-01-04T04:49:44.080Z,69.87
2019-01-04T04:52:13.552Z,71.36
2019-01-04T04:54:43.093Z,71.57
2019-01-04T04:57:12.522Z,72.13
2019-01-04T04:59:41.892Z,70.50
2019-01-04T05:02:11.323Z,69.49
2019-01-04T05:04:40.780Z,69.34
2019-01-04T05:07:10.201Z,66.93
2019-01-04T05:09:39.602Z,68.39
2019-01-04T05:12:09.086Z,68.12
2019-01-04T05:14:38.510Z,69.15
2019-01-04T05:17:07.926Z,68.24
2019-01-04T05:19:37.405Z,68.60
2019-01-04T05:22:06.808Z,68.62
2019-01-04T05:24:36.311Z,68.21
2019-01-04T05:27:05.701Z,67.32
2019-01-04T05:29:35.130Z,67.30
2019-01-04T05:32:04.613Z,67.51
2019-01-04T05:34:34.012Z,67.95
2019-01-04T05:37:03.485Z,67.07
2019-01-04T05:39:32.888Z,68.13
2019-01-04T05:42:02.418Z,68.82
2019-01-04T05:44:31.910Z,69.70
2019-01-04T05:47:01.320Z,69.97
2019-01-04T05:49:30.739Z,70.10
2019-01-04T05:52:00.168Z,70.37
2019-01-04T05:54:29.544Z,70.97
2019-01-04T05:56:58.967Z,70.26
2019-01-04T05:59:28.418Z,70.07
2019-01-04T06:01:57.922Z,70.36
2019-01-04T06:04:27.380Z,69.84
2019-01-04T06:06:56.801Z,69.98
2019-01-04T06:09:26.292Z,69.75
2019-01-04T06:11:55.738Z,69.22
2019-01-04T06:14:25.195Z,69.32
2019-01-04T06:16:54.609Z,69.33
2019-01-04T06:19:24.090Z,68.79
2019-01-04T06:21:53.506Z,68.73
2019-01-04T06:24:23.103Z,69.17
2019-01-04T06:26:52.527Z,69.33
2019-01-04T06:29:21.948Z,69.46
2019-01-04T06:31:51.386Z,69.93
2019-01-04T06:34:20.790Z,69.64
2019-01-04T06:36:50.444Z,69.75
2019-01-04T06:39:20.857Z,69.92
2019-01-04T06:41:50.363Z,69.41
2019-01-04T06:44:19.766Z,69.56
2019-01-04T06:47:12.396Z,69.71
2019-01-04T06:49:41.819Z,70.17
2019-01-04T06:52:11.289Z,70.03
2019-01-04T06:55:35.988Z,70.27
2019-01-04T06:58:05.483Z,70.15
2019-01-04T07:00:35.111Z,70.66
2019-01-04T07:03:04.668Z,70.65
2019-01-04T07:05:34.184Z,70.30
2019-01-04T07:08:03.711Z,70.67
2019-01-04T07:10:33.530Z,70.81
2019-01-04T07:13:03.190Z,70.70
2019-01-04T07:15:33.091Z,71.32
2019-01-04T07:18:02.634Z,71.29
2019-01-04T07:20:32.122Z,71.24
2019-01-04T07:23:01.666Z,71.42
2019-01-04T07:25:31.184Z,71.43
2019-01-04T07:28:00.743Z,71.70
2019-01-04T07:30:30.357Z,71.75
2019-01-04T07:32:59.822Z,71.71
2019-01-04T07:35:29.399Z,71.96
2019-01-04T07:37:58.839Z,71.79
2019-01-04T07:40:28.347Z,71.38
2019-01-04T07:42:59.902Z,72.12
2019-01-04T07:45:29.397Z,72.17
2019-01-04T07:47:59.048Z,72.05
2019-01-04T07:50:28.640Z,72.41
2019-01-04T07:52:58.211Z,72.34
2019-01-04T07:55:27.784Z,72.58
2019-01-04T07:57:57.371Z,72.98
2019-01-04T08:00:26.964Z,73.16
2019-01-04T08:02:58.963Z,73.83
2019-01-04T08:05:29.344Z,73.59
2019-01-04T08:07:58.957Z,73.62
2019-01-04T08:10:28.397Z,73.40
2019-01-04T08:12:57.818Z,73.86
2019-01-04T08:15:27.310Z,73.90
2019-01-04T08:17:56.946Z,73.88
2019-01-04T08:20:26.703Z,74.10
2019-01-04T08:22:56.157Z,74.35
2019-01-04T08:25:25.519Z,74.84
2019-01-04T08:27:54.913Z,74.64
2019-01-04T08:30:24.503Z,74.75
2019-01-04T08:32:54.191Z,75.33
2019-01-04T08:35:25.295Z,75.46
2019-01-04T08:37:54.761Z,75.15
2019-01-04T08:40:24.172Z,75.38
2019-01-04T08:42:54.281Z,75.76
2019-01-04T08:45:23.888Z,75.75
2019-01-04T08:47:53.405Z,76.18
2019-01-04T08:50:23.012Z,75.29
2019-01-04T08:52:52.485Z,75.30
2019-01-04T08:55:29.671Z,75.91
2019-01-04T08:57:59.059Z,76.38
2019-01-04T09:00:28.523Z,75.89
2019-01-04T09:02:58.015Z,75.84
2019-01-04T09:05:27.611Z,76.15
2019-01-04T09:07:57.573Z,75.83
2019-01-04T09:10:28.087Z,75.84
2019-01-04T09:13:41.123Z,75.85
2019-01-04T09:16:06.053Z,76.42
2019-01-04T09:18:35.527Z,76.44
2019-01-04T09:21:05.327Z,76.69
2019-01-04T09:23:35.853Z,76.30
2019-01-04T09:26:05.718Z,76.53
2019-01-04T09:28:35.474Z,76.64
2019-01-04T09:31:05.094Z,76.46
2019-01-04T09:33:34.602Z,76.75
2019-01-04T09:36:04.162Z,76.73
2019-01-04T09:38:33.607Z,76.46
2019-01-04T09:41:28.888Z,76.72
2019-01-04T09:43:58.637Z,77.09
2019-01-04T09:46:28.313Z,77.59
2019-01-04T09:48:58.040Z,77.34
2019-01-04T09:51:27.738Z,77.45
2019-01-04T09:53:57.348Z,77.57
2019-01-04T09:56:27.054Z,77.17
2019-01-04T09:58:56.591Z,77.44
2019-01-04T10:01:25.974Z,77.33
2019-01-04T10:03:55.376Z,77.49
2019-01-04T10:06:24.778Z,77.84
2019-01-04T10:08:54.481Z,77.18
2019-01-04T10:11:24.045Z,77.37
2019-01-04T10:13:53.489Z,76.75
2019-01-04T10:16:22.907Z,77.31
2019-01-04T10:18:52.293Z,77.26
2019-01-04T10:21:22.011Z,77.29
2019-01-04T10:23:51.505Z,77.52
2019-01-04T10:26:21.213Z,77.63
2019-01-04T10:28:51.195Z,77.29
2019-01-04T10:31:20.766Z,77.56
2019-01-04T10:33:50.151Z,77.32
2019-01-04T10:36:19.666Z,76.92
2019-01-04T10:38:49.456Z,77.32
2019-01-04T10:41:19.000Z,77.33
2019-01-04T10:43:48.425Z,77.60
2019-01-04T10:46:17.870Z,77.21
2019-01-04T10:48:47.277Z,77.33
2019-01-04T10:51:16.701Z,77.49
2019-01-04T10:53:46.102Z,76.96
2019-01-04T10:56:15.591Z,76.49
2019-01-04T10:58:45.014Z,76.89
2019-01-04T11:01:14.447Z,77.57
2019-01-04T11:03:43.885Z,76.93
2019-01-04T11:06:13.237Z,77.50
2019-01-04T11:08:42.626Z,77.89
2019-01-04T11:11:11.997Z,76.92
2019-01-04T11:13:41.378Z,77.11
2019-01-04T11:16:10.737Z,77.59
2019-01-04T11:18:40.183Z,77.46
2019-01-04T11:21:11.936Z,78.05
2019-01-04T11:24:08.043Z,78.02
2019-01-04T11:26:50.688Z,78.40
2019-01-04T11:29:57.208Z,78.01
2019-01-04T11:33:19.952Z,77.90
2019-01-04T11:36:12.793Z,77.58
2019-01-04T11:38:59.025Z,78.09
2019-01-04T11:42:00.714Z,77.00
2019-01-04T11:45:25.255Z,77.64
2019-01-04T11:48:12.220Z,77.85
2019-01-04T11:51:09.034Z,75.68
2019-01-04T11:53:38.400Z,74.77
2019-01-04T11:56:07.745Z,72.68
2019-01-04T11:58:37.130Z,72.22
2019-01-04T12:01:06.507Z,74.82
2019-01-04T12:03:35.870Z,75.33
2019-01-04T12:06:05.320Z,75.94
2019-01-04T12:08:34.691Z,76.03
2019-01-04T12:11:04.072Z,76.48
2019-01-04T12:13:33.488Z,76.84
2019-01-04T12:16:02.859Z,77.05
2019-01-04T12:18:32.226Z,77.52
2019-01-04T12:21:01.612Z,77.37
2019-01-04T12:23:31.425Z,76.91
2019-01-04T12:26:00.799Z,77.33
2019-01-04T12:28:30.247Z,77.43
2019-01-04T12:30:59.654Z,77.79
2019-01-04T12:33:29.017Z,77.33
2019-01-04T12:35:58.385Z,77.21
2019-01-04T12:38:27.743Z,76.89
2019-01-04T12:40:57.147Z,77.03
2019-01-04T12:43:26.548Z,76.31
2019-01-04T12:45:57.214Z,76.45
2019-01-04T12:48:26.575Z,76.12
2019-01-04T12:50:55.935Z,76.78
2019-01-04T12:53:25.296Z,76.64
2019-01-04T12:55:54.657Z,76.40
2019-01-04T12:58:24.046Z,76.81
2019-01-04T13:00:53.658Z,77.32
2019-01-04T13:03:23.001Z,77.06
2019-01-04T13:05:52.346Z,76.42
2019-01-04T13:08:21.748Z,76.68
2019-01-04T13:10:51.091Z,76.51
2019-01-04T13:13:20.578Z,76.40
2019-01-04T13:15:49.925Z,76.76
2019-01-04T13:18:19.285Z,77.02
2019-01-04T13:20:48.690Z,76.67
2019-01-04T13:23:18.061Z,76.51
2019-01-04T13:25:47.436Z,76.83
2019-01-04T13:28:16.825Z,76.52
2019-01-04T13:30:46.320Z,77.19
2019-01-04T13:33:15.670Z,76.61
2019-01-04T13:35:45.062Z,76.87
2019-01-04T13:38:19.898Z,76.56
2019-01-04T13:40:45.585Z,77.07
2019-01-04T13:43:14.955Z,77.02
2019-01-04T13:45:44.351Z,76.93
2019-01-04T13:48:13.763Z,76.88
2019-01-04T13:50:43.163Z,76.62
2019-01-04T13:53:12.526Z,76.27
2019-01-04T13:55:41.947Z,76.36
2019-01-04T13:58:11.303Z,76.12
2019-01-04T14:00:40.669Z,75.63
2019-01-04T14:03:10.077Z,75.68
2019-01-04T14:05:39.498Z,75.84
2019-01-04T14:08:08.943Z,74.98
2019-01-04T14:10:38.319Z,75.75
2019-01-04T14:13:09.360Z,76.45
2019-01-04T14:15:39.249Z,75.41
2019-01-04T14:18:08.820Z,75.53
2019-01-04T14:20:38.276Z,75.76
2019-01-04T14:23:07.655Z,75.52
2019-01-04T14:25:37.131Z,75.74
2019-01-04T14:28:06.565Z,75.77
2019-01-04T14:30:35.975Z,76.27
2019-01-04T14:33:05.424Z,75.91
2019-01-04T14:35:34.833Z,76.27
2019-01-04T14:38:04.262Z,76.15
2019-01-04T14:40:33.558Z,76.35
2019-01-04T14:43:02.981Z,76.43
2019-01-04T14:45:32.339Z,76.03
2019-01-04T14:48:01.743Z,76.14
2019-01-04T14:50:31.165Z,75.91
2019-01-04T14:53:00.541Z,75.67
2019-01-04T14:55:29.911Z,75.51
2019-01-04T14:57:59.516Z,75.75
2019-01-04T15:00:28.871Z,75.26
2019-01-04T15:02:58.324Z,74.91
2019-01-04T15:05:27.713Z,74.79
2019-01-04T15:07:57.102Z,74.83
2019-01-04T15:10:26.451Z,74.97
2019-01-04T15:12:55.824Z,74.89
2019-01-04T15:15:25.191Z,74.66
2019-01-04T15:17:54.547Z,74.79
2019-01-04T15:20:23.897Z,74.60
2019-01-04T15:22:53.239Z,74.64
2019-01-04T15:25:22.683Z,73.77
2019-01-04T15:27:52.033Z,73.79
2019-01-04T15:30:21.384Z,73.96
2019-01-04T15:32:50.781Z,74.08
2019-01-04T15:35:20.253Z,73.93
2019-01-04T15:37:49.588Z,73.96
2019-01-04T15:40:18.948Z,74.15
2019-01-04T15:42:48.296Z,74.62
2019-01-04T15:45:17.660Z,73.86
2019-01-04T15:47:47.064Z,73.09
2019-01-04T15:50:16.416Z,75.90
2019-01-04T15:52:45.858Z,72.63
2019-01-04T15:55:15.208Z,72.32
2019-01-04T15:57:44.617Z,72.76
2019-01-04T16:00:13.979Z,72.87
2019-01-04T16:02:43.316Z,72.64
2019-01-04T16:05:12.742Z,72.27
2019-01-04T16:07:42.089Z,72.54
2019-01-04T16:10:11.463Z,72.74
2019-01-04T16:12:40.815Z,72.01
2019-01-04T16:15:10.585Z,72.18
2019-01-04T16:17:40.028Z,72.41
2019-01-04T16:20:10.369Z,71.87
2019-01-04T16:22:39.715Z,71.42
2019-01-04T16:25:09.363Z,71.73
2019-01-04T16:27:38.758Z,70.71
2019-01-04T16:30:10.451Z,70.35
2019-01-04T16:32:39.825Z,70.63
2019-01-04T16:35:09.510Z,70.83
2019-01-04T16:37:38.908Z,71.15
2019-01-04T16:40:08.494Z,70.38
2019-01-04T16:42:37.843Z,70.67
